createdAt,value
2023-08-11T00:01:18.977Z,99010.63
2023-08-11T00:03:46.170Z,99016.69
2023-08-11T00:06:15.179Z,99012.56
2023-08-11T00:08:42.045Z,99010.25
2023-08-11T00:11:09.112Z,99017.25
2023-08-11T00:13:36.680Z,99012.16
2023-08-11T00:16:04.775Z,99006.31
2023-08-11T00:18:31.866Z,99015.06
2023-08-11T00:21:00.344Z,99016.13
2023-08-11T00:23:27.290Z,99004.97
2023-08-11T00:25:54.025Z,99010.19
2023-08-11T00:28:20.860Z,99007.88
2023-08-11T00:30:47.752Z,99011.53
2023-08-11T00:33:14.824Z,99016.91
2023-08-11T00:35:44.494Z,99006.63
2023-08-11T00:38:11.513Z,99010.19
2023-08-11T00:40:38.482Z,99008.56
2023-08-11T00:43:05.416Z,99005.97
2023-08-11T00:45:32.390Z,99004.50
2023-08-11T00:47:59.609Z,99001.03
2023-08-11T00:50:27.100Z,99004.59
2023-08-11T00:52:54.078Z,99005.69
2023-08-11T00:55:23.042Z,99011.03
2023-08-11T00:57:50.223Z,99005.91
2023-08-11T01:00:17.605Z,99012.09
2023-08-11T01:02:45.706Z,99010.50
2023-08-11T01:05:15.494Z,99007.22
2023-08-11T01:07:57.620Z,99012.44
2023-08-11T01:10:35.000Z,99009.09
2023-08-11T01:13:07.489Z,99013.47
2023-08-11T01:15:40.745Z,99012.81
2023-08-11T01:18:09.033Z,99007.72
2023-08-11T01:20:38.338Z,99009.53
2023-08-11T01:23:07.888Z,99010.47
2023-08-11T01:25:36.011Z,99007.03
2023-08-11T01:28:03.756Z,99008.03
2023-08-11T01:30:31.566Z,99014.09
2023-08-11T01:32:58.503Z,99008.97
2023-08-11T01:35:34.258Z,99010.78
2023-08-11T01:38:08.128Z,99015.91
2023-08-11T01:40:35.322Z,99006.44
2023-08-11T01:43:04.739Z,99009.97
2023-08-11T01:45:31.568Z,99006.63
2023-08-11T01:48:00.468Z,99013.69
2023-08-11T01:50:29.120Z,99013.69
2023-08-11T01:52:56.151Z,99008.63
2023-08-11T01:55:26.139Z,99012.13
2023-08-11T01:57:59.105Z,99009.59
2023-08-11T02:00:27.958Z,99012.31
2023-08-11T02:02:55.191Z,99010.75
2023-08-11T02:05:25.994Z,99009.84
2023-08-11T02:07:54.241Z,99005.69
2023-08-11T02:10:21.383Z,99009.28
2023-08-11T02:12:49.373Z,99015.41
2023-08-11T02:15:16.485Z,99016.34
2023-08-11T02:17:43.809Z,99017.19
2023-08-11T02:20:31.523Z,99013.84
2023-08-11T02:22:58.258Z,99015.53
2023-08-11T02:25:27.091Z,99021.66
2023-08-11T02:27:54.556Z,99015.69
2023-08-11T02:30:23.468Z,99018.31
2023-08-11T02:32:51.664Z,99013.28
2023-08-11T02:35:19.055Z,99015.13
2023-08-11T02:37:46.108Z,99023.03
2023-08-11T02:40:13.173Z,99016.09
2023-08-11T02:42:45.236Z,99023.84
2023-08-11T02:45:12.730Z,99034.22
2023-08-11T02:47:43.599Z,99025.63
2023-08-11T02:50:11.047Z,99030.94
2023-08-11T02:52:38.708Z,99025.75
2023-08-11T02:55:06.712Z,99037.13
2023-08-11T02:57:34.558Z,99030.53
2023-08-11T03:00:01.952Z,99038.38
2023-08-11T03:02:28.758Z,99040.97
2023-08-11T03:04:55.604Z,99036.63
2023-08-11T03:07:22.337Z,99035.88
2023-08-11T03:09:49.061Z,99033.34
2023-08-11T03:12:15.834Z,99049.84
2023-08-11T03:14:43.061Z,99036.91
2023-08-11T03:17:11.417Z,99035.13
2023-08-11T03:19:38.211Z,99036.09
2023-08-11T03:22:05.211Z,99040.44
2023-08-11T03:24:32.035Z,99040.47
2023-08-11T03:26:58.738Z,99040.44
2023-08-11T03:29:25.386Z,99042.13
2023-08-11T03:31:52.065Z,99045.53
2023-08-11T03:34:18.892Z,99037.84
2023-08-11T03:36:45.764Z,99044.94
2023-08-11T03:39:12.784Z,99051.03
2023-08-11T03:41:39.569Z,99051.16
2023-08-11T03:44:06.616Z,99045.03
2023-08-11T03:46:33.545Z,99048.63
2023-08-11T03:49:00.304Z,99048.63
2023-08-11T03:51:27.661Z,99053.09
2023-08-11T03:53:54.568Z,99060.16
2023-08-11T03:56:21.388Z,99062.91
2023-08-11T03:58:48.099Z,99059.44
2023-08-11T04:01:14.857Z,99068.09
2023-08-11T04:03:41.837Z,99068.09
2023-08-11T04:06:08.634Z,99062.94
2023-08-11T04:08:35.362Z,99065.59
2023-08-11T04:11:02.267Z,99063.97
2023-08-11T04:13:29.457Z,99071.72
2023-08-11T04:15:56.133Z,99066.56
2023-08-11T04:18:22.993Z,99077.75
2023-08-11T04:20:49.643Z,99072.69
2023-08-11T04:23:16.306Z,99076.19
2023-08-11T04:25:44.549Z,99075.28
2023-08-11T04:28:11.655Z,99079.56
2023-08-11T04:30:38.848Z,99076.25
2023-08-11T04:33:06.826Z,99074.38
2023-08-11T04:35:34.451Z,99078.78
2023-08-11T04:38:01.322Z,99077.00
2023-08-11T04:40:28.100Z,99078.78
2023-08-11T04:42:54.805Z,99081.31
2023-08-11T04:45:21.639Z,99083.06
2023-08-11T04:47:48.728Z,99086.47
2023-08-11T04:50:15.547Z,99091.66
2023-08-11T04:52:43.906Z,99096.84
2023-08-11T04:55:13.947Z,99092.47
2023-08-11T04:57:40.940Z,99097.63
2023-08-11T05:00:14.839Z,99092.31
2023-08-11T05:02:43.304Z,99098.34
2023-08-11T05:05:10.467Z,99095.66
2023-08-11T05:07:38.466Z,99097.34
2023-08-11T05:10:05.801Z,99098.25
2023-08-11T05:12:32.755Z,99112.94
2023-08-11T05:14:59.545Z,99108.53
2023-08-11T05:17:26.200Z,99110.13
2023-08-11T05:19:52.930Z,99105.03
2023-08-11T05:22:19.627Z,99119.69
2023-08-11T05:24:46.308Z,99121.31
2023-08-11T05:27:13.578Z,99120.44
2023-08-11T05:29:40.317Z,99113.44
2023-08-11T05:32:07.197Z,99115.06
2023-08-11T05:34:34.122Z,99117.34
2023-08-11T05:37:00.953Z,99112.84
2023-08-11T05:39:27.658Z,99115.38
2023-08-11T05:41:54.607Z,99119.69
2023-08-11T05:44:21.361Z,99115.88
2023-08-11T05:46:48.311Z,99118.31
2023-08-11T05:49:15.196Z,99117.88
2023-08-11T05:51:41.924Z,99114.59
2023-08-11T05:54:08.680Z,99116.38
2023-08-11T05:56:35.346Z,99123.25
2023-08-11T05:59:02.054Z,99122.19
2023-08-11T06:01:28.807Z,99122.03
2023-08-11T06:03:55.583Z,99126.28
2023-08-11T06:06:22.363Z,99127.97
2023-08-11T06:08:49.285Z,99113.25
2023-08-11T06:11:15.963Z,99124.31
2023-08-11T06:13:42.819Z,99120.53
2023-08-11T06:16:09.790Z,99125.25
2023-08-11T06:18:36.651Z,99125.81
2023-08-11T06:21:05.401Z,99113.25
2023-08-11T06:23:33.577Z,99118.84
2023-08-11T06:26:00.392Z,99115.69
2023-08-11T06:28:27.213Z,99116.91
2023-08-11T06:30:54.858Z,99111.13
2023-08-11T06:33:22.501Z,99115.88
2023-08-11T06:35:49.254Z,99113.38
2023-08-11T06:38:15.907Z,99106.47
2023-08-11T06:40:42.665Z,99113.41
2023-08-11T06:43:09.421Z,99118.81
2023-08-11T06:45:36.191Z,99118.06
2023-08-11T06:48:03.067Z,99120.78
2023-08-11T06:50:29.917Z,99117.50
2023-08-11T06:52:59.301Z,99117.53
2023-08-11T06:55:27.156Z,99120.41
2023-08-11T06:57:53.818Z,99121.47
2023-08-11T07:00:20.515Z,99123.31
2023-08-11T07:02:47.268Z,99114.53
2023-08-11T07:05:14.124Z,99117.91
2023-08-11T07:07:40.939Z,99117.75
2023-08-11T07:10:08.009Z,99117.56
2023-08-11T07:12:34.806Z,99124.78
2023-08-11T07:15:02.022Z,99123.22
2023-08-11T07:17:28.714Z,99122.50
2023-08-11T07:19:55.565Z,99122.34
2023-08-11T07:22:22.312Z,99123.94
2023-08-11T07:24:49.011Z,99120.53
2023-08-11T07:27:17.617Z,99125.84
2023-08-11T07:29:46.108Z,99123.84
2023-08-11T07:32:12.801Z,99130.13
2023-08-11T07:34:39.703Z,99131.81
2023-08-11T07:37:06.747Z,99129.16
2023-08-11T07:39:34.121Z,99132.63
2023-08-11T07:42:04.200Z,99127.91
2023-08-11T07:44:32.590Z,99129.00
2023-08-11T07:46:59.956Z,99132.19
2023-08-11T07:49:26.815Z,99131.69
2023-08-11T07:51:53.559Z,99129.75
2023-08-11T07:54:20.686Z,99126.59
2023-08-11T07:56:47.553Z,99126.69
2023-08-11T07:59:14.303Z,99125.41
2023-08-11T08:01:41.068Z,99125.63
2023-08-11T08:04:07.804Z,99127.78
2023-08-11T08:06:37.286Z,99122.03
2023-08-11T08:09:04.222Z,99120.69
2023-08-11T08:11:30.953Z,99124.22
2023-08-11T08:13:57.630Z,99116.59
2023-08-11T08:16:24.364Z,99114.00
2023-08-11T08:18:51.191Z,99115.16
2023-08-11T08:21:17.849Z,99104.69
2023-08-11T08:23:44.627Z,99113.31
2023-08-11T08:26:11.326Z,99114.84
2023-08-11T08:28:38.489Z,99116.94
2023-08-11T08:31:07.135Z,99122.13
2023-08-11T08:33:34.600Z,99116.44
2023-08-11T08:36:01.351Z,99121.47
2023-08-11T08:38:28.034Z,99118.81
2023-08-11T08:40:55.043Z,99111.13
2023-08-11T08:43:22.498Z,99111.09
2023-08-11T08:45:51.963Z,99119.94
2023-08-11T08:48:25.874Z,99113.25
2023-08-11T08:50:52.781Z,99117.06
2023-08-11T08:53:20.292Z,99112.34
2023-08-11T08:55:47.617Z,99115.44
2023-08-11T08:58:15.969Z,99119.91
2023-08-11T09:00:44.240Z,99112.66
2023-08-11T09:03:12.213Z,99116.53
2023-08-11T09:05:39.356Z,99116.78
2023-08-11T09:08:06.824Z,99112.22
2023-08-11T09:10:37.730Z,99113.69
2023-08-11T09:13:04.946Z,99112.44
2023-08-11T09:15:31.677Z,99101.72
2023-08-11T09:18:00.092Z,99109.38
2023-08-11T09:20:28.082Z,99112.75
2023-08-11T09:22:54.842Z,99106.25
2023-08-11T09:25:21.776Z,99102.75
2023-08-11T09:27:52.225Z,99101.44
2023-08-11T09:30:18.950Z,99101.78
2023-08-11T09:32:51.972Z,99099.97
2023-08-11T09:35:25.037Z,99103.97
2023-08-11T09:37:56.245Z,99100.34
2023-08-11T09:40:23.895Z,99099.13
2023-08-11T09:42:52.421Z,99108.28
2023-08-11T09:45:19.437Z,99111.50
2023-08-11T09:47:47.192Z,99107.06
2023-08-11T09:50:14.453Z,99104.16
2023-08-11T09:52:42.927Z,99100.13
2023-08-11T09:55:14.177Z,99105.63
2023-08-11T09:57:45.169Z,99100.34
2023-08-11T10:00:15.951Z,99101.06
2023-08-11T10:03:07.283Z,99092.84
2023-08-11T10:05:40.831Z,99097.88
2023-08-11T10:08:11.091Z,99096.22
2023-08-11T10:10:39.816Z,99092.59
2023-08-11T10:13:09.169Z,99093.31
2023-08-11T10:15:36.598Z,99095.16
2023-08-11T10:18:04.220Z,99090.09
2023-08-11T10:20:31.572Z,99087.69
2023-08-11T10:22:59.002Z,99087.97
2023-08-11T10:25:26.810Z,99088.34
2023-08-11T10:27:55.339Z,99088.16
2023-08-11T10:30:24.384Z,99096.31
2023-08-11T10:33:10.379Z,99083.69
2023-08-11T10:35:46.936Z,99077.34
2023-08-11T10:38:14.029Z,99082.63
2023-08-11T10:40:41.191Z,99074.81
2023-08-11T10:43:07.989Z,99070.38
2023-08-11T10:45:37.452Z,99065.53
2023-08-11T10:48:09.561Z,99072.91
2023-08-11T10:50:38.602Z,99067.00
2023-08-11T10:53:20.865Z,99070.63
2023-08-11T10:56:04.254Z,99067.28
2023-08-11T10:58:31.903Z,99067.53
2023-08-11T11:00:59.536Z,99067.78
2023-08-11T11:03:27.063Z,99070.81
2023-08-11T11:05:53.803Z,99068.53
2023-08-11T11:08:20.533Z,99069.38
2023-08-11T11:10:50.681Z,99073.81
2023-08-11T11:13:18.443Z,99076.72
2023-08-11T11:15:45.623Z,99066.00
2023-08-11T11:18:12.748Z,99063.25
2023-08-11T11:20:39.548Z,99063.50
2023-08-11T11:23:06.778Z,99071.53
2023-08-11T11:25:33.701Z,99067.94
2023-08-11T11:28:00.441Z,99063.50
2023-08-11T11:30:27.197Z,99060.72
2023-08-11T11:32:54.068Z,99066.72
2023-08-11T11:35:20.827Z,99056.88
2023-08-11T11:37:47.675Z,99056.88
2023-08-11T11:40:15.137Z,99064.69
2023-08-11T11:42:42.789Z,99065.97
2023-08-11T11:45:11.863Z,99069.91
2023-08-11T11:47:38.893Z,99063.69
2023-08-11T11:50:09.705Z,99062.97
2023-08-11T11:52:37.967Z,99070.75
2023-08-11T11:55:07.419Z,99075.06
2023-08-11T11:57:35.360Z,99063.69
2023-08-11T12:00:04.454Z,99070.75
2023-08-11T12:02:31.572Z,99065.34
2023-08-11T12:04:58.634Z,99059.78
2023-08-11T12:07:30.406Z,99059.66
2023-08-11T12:09:57.366Z,99059.94
2023-08-11T12:12:30.258Z,99064.63
2023-08-11T12:15:08.260Z,99055.03
2023-08-11T12:17:36.693Z,99059.22
2023-08-11T12:20:09.571Z,99052.13
2023-08-11T12:22:36.480Z,99058.13
2023-08-11T12:25:03.374Z,99056.44
2023-08-11T12:27:30.137Z,99058.38
2023-08-11T12:29:56.897Z,99046.69
2023-08-11T12:32:23.694Z,99053.44
2023-08-11T12:34:50.439Z,99048.13
2023-08-11T12:37:17.359Z,99053.78
2023-08-11T12:39:44.149Z,99049.94
2023-08-11T12:42:11.627Z,99056.16
2023-08-11T12:44:40.523Z,99050.88
2023-08-11T12:47:07.768Z,99053.09
2023-08-11T12:49:34.618Z,99050.44
2023-08-11T12:52:01.482Z,99040.81
2023-08-11T12:54:28.276Z,99044.69
2023-08-11T12:56:55.108Z,99038.81
2023-08-11T12:59:21.961Z,99043.41
2023-08-11T13:01:48.818Z,99044.38
2023-08-11T13:04:15.749Z,99038.22
2023-08-11T13:06:42.477Z,99041.59
2023-08-11T13:09:09.270Z,99053.00
2023-08-11T13:11:36.060Z,99037.72
2023-08-11T13:14:03.778Z,99039.41
2023-08-11T13:16:30.836Z,99033.28
2023-08-11T13:18:57.669Z,99033.41
2023-08-11T13:21:24.391Z,99027.97
2023-08-11T13:23:51.140Z,99022.81
2023-08-11T13:26:17.878Z,99033.88
2023-08-11T13:28:44.614Z,99028.69
2023-08-11T13:31:11.415Z,99026.50
2023-08-11T13:33:38.379Z,99029.72
2023-08-11T13:36:06.148Z,99032.00
2023-08-11T13:38:33.253Z,99027.97
2023-08-11T13:41:00.074Z,99022.59
2023-08-11T13:43:26.958Z,99022.19
2023-08-11T13:45:54.716Z,99017.63
2023-08-11T13:48:24.779Z,99014.84
2023-08-11T13:50:54.705Z,99018.06
2023-08-11T13:53:21.603Z,99020.59
2023-08-11T13:55:48.339Z,99020.44
2023-08-11T13:58:15.177Z,99013.09
2023-08-11T14:00:41.972Z,99025.34
2023-08-11T14:03:08.714Z,99016.44
2023-08-11T14:05:35.862Z,99016.06
2023-08-11T14:08:02.608Z,99020.25
2023-08-11T14:10:29.298Z,99013.00
2023-08-11T14:12:56.035Z,99013.88
2023-08-11T14:15:22.794Z,99013.97
2023-08-11T14:17:49.483Z,99013.88
2023-08-11T14:20:16.625Z,99008.28
2023-08-11T14:22:43.370Z,99018.66
2023-08-11T14:25:10.082Z,99007.78
2023-08-11T14:27:36.847Z,99010.16
2023-08-11T14:30:03.807Z,99008.25
2023-08-11T14:32:30.684Z,99008.38
2023-08-11T14:34:57.501Z,99004.59
2023-08-11T14:37:24.279Z,99010.88
2023-08-11T14:39:51.055Z,99015.19
2023-08-11T14:42:18.096Z,99007.25
2023-08-11T14:44:44.918Z,99007.25
2023-08-11T14:47:15.468Z,99011.47
2023-08-11T14:49:43.715Z,99014.97
2023-08-11T14:52:11.836Z,99007.84
2023-08-11T14:54:39.042Z,99006.16
2023-08-11T14:57:06.645Z,99007.69
2023-08-11T14:59:33.328Z,99013.00
2023-08-11T15:01:59.981Z,99013.69
2023-08-11T15:04:28.026Z,99012.88
2023-08-11T15:06:55.012Z,99015.53
2023-08-11T15:09:21.827Z,99011.19
2023-08-11T15:11:49.395Z,99012.19
2023-08-11T15:14:17.090Z,99002.66
2023-08-11T15:16:43.900Z,99014.25
2023-08-11T15:19:10.649Z,99008.94
2023-08-11T15:21:37.647Z,99008.09
2023-08-11T15:24:04.601Z,98999.72
2023-08-11T15:26:31.281Z,99002.50
2023-08-11T15:28:58.349Z,99004.44
2023-08-11T15:31:25.208Z,99008.44
2023-08-11T15:33:51.940Z,99007.13
2023-08-11T15:36:21.071Z,99001.25
2023-08-11T15:38:48.721Z,99000.69
2023-08-11T15:41:15.522Z,99007.09
2023-08-11T15:43:42.420Z,99010.94
2023-08-11T15:46:09.297Z,99010.38
2023-08-11T15:48:36.057Z,99010.03
2023-08-11T15:51:04.116Z,99012.25
2023-08-11T15:53:31.006Z,99005.28
2023-08-11T15:55:57.821Z,98995.09
2023-08-11T15:58:24.537Z,99004.97
2023-08-11T16:00:52.244Z,99001.72
2023-08-11T16:03:21.558Z,99004.63
2023-08-11T16:05:49.100Z,98997.56
2023-08-11T16:08:15.830Z,98996.69
2023-08-11T16:10:43.622Z,98993.06
2023-08-11T16:13:11.295Z,98996.84
2023-08-11T16:15:38.334Z,98992.34
2023-08-11T16:18:11.346Z,98989.63
2023-08-11T16:20:38.474Z,98984.31
2023-08-11T16:23:05.820Z,98989.72
2023-08-11T16:25:32.674Z,98990.44
2023-08-11T16:27:59.974Z,98981.69
2023-08-11T16:30:26.708Z,98994.66
2023-08-11T16:32:56.058Z,98985.00
2023-08-11T16:35:23.023Z,98992.13
2023-08-11T16:37:49.716Z,98989.63
2023-08-11T16:40:16.561Z,98988.63
2023-08-11T16:42:43.310Z,98996.31
2023-08-11T16:45:10.457Z,99000.75
2023-08-11T16:47:37.192Z,99003.53
2023-08-11T16:50:04.052Z,99006.88
2023-08-11T16:52:30.745Z,99004.97
2023-08-11T16:54:58.864Z,99001.59
2023-08-11T16:57:25.605Z,99005.91
2023-08-11T16:59:52.268Z,99003.25
2023-08-11T17:02:19.005Z,99000.75
2023-08-11T17:04:45.803Z,99007.59
2023-08-11T17:07:12.517Z,99007.88
2023-08-11T17:09:39.273Z,99007.03
2023-08-11T17:12:06.456Z,99009.06
2023-08-11T17:14:33.169Z,99005.59
2023-08-11T17:16:59.931Z,99008.34
2023-08-11T17:19:26.838Z,99005.97
2023-08-11T17:21:54.133Z,99006.22
2023-08-11T17:24:20.871Z,99010.00
2023-08-11T17:26:47.582Z,99005.91
2023-08-11T17:29:14.261Z,99004.34
2023-08-11T17:31:40.976Z,99012.50
2023-08-11T17:34:07.712Z,99014.41
2023-08-11T17:36:34.382Z,99009.41
2023-08-11T17:39:01.368Z,99001.72
2023-08-11T17:41:28.162Z,99013.53
2023-08-11T17:43:57.818Z,99010.41
2023-08-11T17:46:24.762Z,99002.84
2023-08-11T17:48:53.605Z,99004.19
2023-08-11T17:51:21.892Z,99005.53
2023-08-11T17:53:59.697Z,99008.56
2023-08-11T17:56:36.748Z,99007.09
2023-08-11T17:59:03.842Z,99009.03
2023-08-11T18:01:31.150Z,99012.19
2023-08-11T18:04:02.654Z,99014.34
2023-08-11T18:06:32.005Z,99010.50
2023-08-11T18:08:58.688Z,99011.13
2023-08-11T18:11:25.477Z,99012.28
2023-08-11T18:13:52.193Z,99019.53
2023-08-11T18:16:18.990Z,99023.34
2023-08-11T18:18:45.864Z,99034.53
2023-08-11T18:21:20.598Z,99026.34
2023-08-11T18:23:48.098Z,99029.22
2023-08-11T18:26:15.869Z,99029.94
2023-08-11T18:28:42.802Z,99034.38
2023-08-11T18:31:09.700Z,99037.72
2023-08-11T18:33:36.400Z,99040.69
2023-08-11T18:36:03.135Z,99039.72
2023-08-11T18:38:29.907Z,99031.75
2023-08-11T18:40:56.612Z,99037.47
2023-08-11T18:43:23.392Z,99038.16
2023-08-11T18:45:50.141Z,99044.13
2023-08-11T18:48:17.091Z,99054.28
2023-08-11T18:50:43.817Z,99047.75
2023-08-11T18:53:10.509Z,99042.94
2023-08-11T18:55:37.254Z,99052.75
2023-08-11T18:58:04.757Z,99047.59
2023-08-11T19:00:31.556Z,99060.16
2023-08-11T19:02:58.238Z,99053.22
2023-08-11T19:05:25.215Z,99063.03
2023-08-11T19:07:51.981Z,99060.00
2023-08-11T19:10:18.706Z,99067.28
2023-08-11T19:12:45.415Z,99058.81
2023-08-11T19:15:12.148Z,99061.91
2023-08-11T19:17:38.845Z,99065.81
2023-08-11T19:20:06.136Z,99073.19
2023-08-11T19:22:32.823Z,99069.94
2023-08-11T19:24:59.525Z,99069.53
2023-08-11T19:27:28.395Z,99066.38
2023-08-11T19:29:55.677Z,99071.34
2023-08-11T19:32:22.496Z,99071.78
2023-08-11T19:34:49.248Z,99066.09
2023-08-11T19:37:16.053Z,99069.97
2023-08-11T19:39:42.802Z,99079.78
2023-08-11T19:42:09.675Z,99075.16
2023-08-11T19:44:38.368Z,99080.09
2023-08-11T19:47:05.257Z,99073.63
2023-08-11T19:49:31.960Z,99076.78
2023-08-11T19:51:58.785Z,99082.47
2023-08-11T19:54:25.528Z,99075.91
2023-08-11T19:56:52.351Z,99079.72
2023-08-11T19:59:19.281Z,99083.69
2023-08-11T20:01:46.048Z,99080.41
2023-08-11T20:04:13.637Z,99072.09
2023-08-11T20:06:40.458Z,99077.66
2023-08-11T20:09:09.356Z,99072.88
2023-08-11T20:11:36.166Z,99073.09
2023-08-11T20:14:02.964Z,99065.75
2023-08-11T20:16:29.638Z,99065.19
2023-08-11T20:18:56.392Z,99070.66
2023-08-11T20:21:23.116Z,99065.91
2023-08-11T20:23:49.767Z,99068.63
2023-08-11T20:26:16.447Z,99068.25
2023-08-11T20:28:47.206Z,99062.53
2023-08-11T20:31:15.373Z,99062.84
2023-08-11T20:33:42.223Z,99065.88
2023-08-11T20:36:08.997Z,99072.34
2023-08-11T20:38:39.220Z,99078.72
2023-08-11T20:41:06.273Z,99072.94
2023-08-11T20:43:32.972Z,99075.09
2023-08-11T20:46:01.112Z,99072.84
2023-08-11T20:48:28.133Z,99069.56
2023-08-11T20:51:03.667Z,99088.06
2023-08-11T20:53:30.658Z,99082.53
2023-08-11T20:56:00.949Z,99086.38
2023-08-11T20:58:28.834Z,99083.94
2023-08-11T21:00:55.990Z,99084.22
2023-08-11T21:03:22.696Z,99081.88
2023-08-11T21:05:49.513Z,99080.47
2023-08-11T21:08:18.386Z,99079.13
2023-08-11T21:10:46.307Z,99083.91
2023-08-11T21:13:14.098Z,99087.56
2023-08-11T21:15:41.033Z,99085.94
2023-08-11T21:18:09.744Z,99096.72
2023-08-11T21:20:37.364Z,99091.56
2023-08-11T21:23:05.364Z,99098.88
2023-08-11T21:25:33.344Z,99087.13
2023-08-11T21:28:00.281Z,99090.44
2023-08-11T21:30:27.098Z,99093.34
2023-08-11T21:32:53.981Z,99089.84
2023-08-11T21:35:21.439Z,99093.56
2023-08-11T21:37:49.395Z,99091.44
2023-08-11T21:40:16.192Z,99087.56
2023-08-11T21:42:43.338Z,99093.66
2023-08-11T21:45:11.017Z,99097.44
2023-08-11T21:47:37.678Z,99095.31
2023-08-11T21:50:04.732Z,99099.22
2023-08-11T21:52:31.469Z,99092.56
2023-08-11T21:54:58.149Z,99093.66
2023-08-11T21:57:24.883Z,99094.63
2023-08-11T21:59:51.752Z,99099.09
2023-08-11T22:02:18.628Z,99096.81
2023-08-11T22:04:46.575Z,99096.97
2023-08-11T22:07:14.112Z,99099.00
2023-08-11T22:09:42.789Z,99099.88
2023-08-11T22:12:12.190Z,99090.53
2023-08-11T22:14:39.256Z,99096.13
2023-08-11T22:17:05.930Z,99096.31
2023-08-11T22:19:36.463Z,99088.72
2023-08-11T22:22:08.580Z,99091.72
2023-08-11T22:24:41.013Z,99092.00
2023-08-11T22:27:10.845Z,99107.81
2023-08-11T22:29:38.088Z,99093.69
2023-08-11T22:32:05.024Z,99091.16
2023-08-11T22:34:31.805Z,99095.28
2023-08-11T22:36:58.490Z,99089.28
2023-08-11T22:39:25.265Z,99106.09
2023-08-11T22:41:51.933Z,99101.19
2023-08-11T22:44:18.682Z,99100.03
2023-08-11T22:46:45.323Z,99092.56
2023-08-11T22:49:12.097Z,99096.72
2023-08-11T22:51:38.814Z,99098.66
2023-08-11T22:54:05.838Z,99090.31
2023-08-11T22:56:32.585Z,99094.00
2023-08-11T22:58:59.450Z,99089.88
2023-08-11T23:01:26.203Z,99097.03
2023-08-11T23:03:52.979Z,99090.19
2023-08-11T23:06:20.650Z,99098.22
2023-08-11T23:08:47.392Z,99090.69
2023-08-11T23:11:14.152Z,99084.59
2023-08-11T23:13:40.886Z,99094.25
2023-08-11T23:16:07.737Z,99078.38
2023-08-11T23:18:34.540Z,99081.91
2023-08-11T23:21:01.242Z,99087.91
2023-08-11T23:23:29.322Z,99085.47
2023-08-11T23:25:56.329Z,99081.22
2023-08-11T23:28:22.999Z,99081.47
2023-08-11T23:30:49.629Z,99083.41
2023-08-11T23:33:16.614Z,99067.69
2023-08-11T23:35:43.327Z,99078.41
2023-08-11T23:38:11.972Z,99070.06
2023-08-11T23:40:39.938Z,99071.88
2023-08-11T23:43:06.584Z,99065.94
2023-08-11T23:45:33.404Z,99076.56
2023-08-11T23:48:00.285Z,99074.97
2023-08-11T23:50:27.769Z,99085.53
2023-08-11T23:52:54.435Z,99078.66
2023-08-11T23:55:21.373Z,99073.06
2023-08-11T23:57:48.215Z,99080.22
